Time;durP1;ratioP1;P1;durP2;ratioP2;P2;SDS_P1;SDS_P2;PMS_P1;PMS_P2;Temp;Humidity;BMP_temperature;BMP_pressure;BME280_temperature;BME280_humidity;BME280_pressure;Samples;Min_cycle;Max_cycle;Signal;HPM_P1;HPM_P2
2022/11/18 00:01:11;;;;;;;2.95;1.30;;;11.70;99.90;;;;;;5045841;28;20189;-76
2022/11/18 00:03:40;;;;;;;3.13;1.25;;;11.80;99.90;;;;;;5040943;28;20204;-74
2022/11/18 00:06:12;;;;;;;2.22;1.10;;;11.80;99.90;;;;;;5041496;28;20183;-76
2022/11/18 00:08:40;;;;;;;3.03;1.30;;;11.70;99.90;;;;;;5055953;28;20184;-75
2022/11/18 00:11:11;;;;;;;1.95;1.20;;;11.80;99.90;;;;;;5039975;28;20315;-76
2022/11/18 00:16:22;;;;;;;1.73;1.10;;;11.70;99.90;;;;;;5043744;28;20204;-75
2022/11/18 00:18:48;;;;;;;4.85;1.90;;;11.80;99.90;;;;;;5052964;28;20179;-74
2022/11/18 00:21:14;;;;;;;3.15;1.30;;;11.70;99.90;;;;;;5055559;28;20174;-76
2022/11/18 00:23:40;;;;;;;2.13;1.30;;;11.70;99.90;;;;;;5037510;28;20178;-75
2022/11/18 00:26:13;;;;;;;2.22;1.15;;;11.70;99.90;;;;;;5049627;28;20232;-74
2022/11/18 00:28:42;;;;;;;3.33;1.60;;;11.70;99.90;;;;;;5039657;28;20208;-75
2022/11/18 00:31:15;;;;;;;2.30;1.25;;;11.70;99.90;;;;;;5048269;28;20169;-75
2022/11/18 00:33:40;;;;;;;2.10;1.10;;;11.60;99.90;;;;;;5055323;28;20197;-74
2022/11/18 00:36:10;;;;;;;2.03;1.08;;;11.60;99.90;;;;;;5045081;28;20229;-75
2022/11/18 00:38:37;;;;;;;2.80;1.20;;;11.60;99.90;;;;;;5048003;28;20181;-75
2022/11/18 00:41:14;;;;;;;2.45;1.50;;;11.50;99.90;;;;;;5052030;28;20182;-75
2022/11/18 00:43:40;;;;;;;1.52;1.10;;;11.60;99.90;;;;;;5047115;28;20203;-76
2022/11/18 00:46:10;;;;;;;2.40;1.45;;;11.50;99.90;;;;;;5051362;28;20201;-75
2022/11/18 00:48:39;;;;;;;2.63;1.42;;;11.50;99.90;;;;;;5050615;28;20464;-75
2022/11/18 00:51:07;;;;;;;2.63;1.20;;;11.50;99.90;;;;;;5048895;28;20178;-75
2022/11/18 00:53:33;;;;;;;3.58;1.30;;;11.50;99.90;;;;;;5046871;28;20201;-75
2022/11/18 00:56:00;;;;;;;1.65;1.20;;;11.50;99.90;;;;;;5049536;28;20193;-75
2022/11/18 00:58:26;;;;;;;3.03;1.17;;;11.50;99.90;;;;;;5046206;28;20173;-76
2022/11/18 01:00:54;;;;;;;2.72;1.80;;;11.50;99.90;;;;;;5035641;28;20281;-75
2022/11/18 01:03:24;;;;;;;3.33;1.67;;;11.50;99.90;;;;;;5035987;28;20192;-76
2022/11/18 01:05:52;;;;;;;3.03;1.35;;;11.50;99.90;;;;;;5037297;28;20459;-76
2022/11/18 01:08:19;;;;;;;1.60;1.10;;;11.60;99.90;;;;;;5035467;28;20197;-74
2022/11/18 01:10:46;;;;;;;2.85;1.30;;;11.60;99.90;;;;;;5048957;28;20211;-73
2022/11/18 01:13:20;;;;;;;3.15;1.50;;;11.60;99.90;;;;;;5041201;28;20190;-75
2022/11/18 01:15:55;;;;;;;2.33;1.25;;;11.60;99.90;;;;;;5049738;28;20305;-75
2022/11/18 01:18:23;;;;;;;2.67;1.05;;;11.60;99.90;;;;;;5054170;28;20173;-75
2022/11/18 01:20:49;;;;;;;2.67;1.10;;;11.60;99.90;;;;;;5053564;28;20182;-75
2022/11/18 01:23:16;;;;;;;2.50;1.25;;;11.50;99.90;;;;;;5041647;28;20212;-73
2022/11/18 01:25:47;;;;;;;2.30;1.20;;;11.50;99.90;;;;;;5048734;28;20224;-76
2022/11/18 01:28:13;;;;;;;4.78;1.30;;;11.50;99.90;;;;;;5037444;28;20182;-76
2022/11/18 01:30:40;;;;;;;2.15;1.27;;;11.50;99.90;;;;;;5053921;28;20209;-76
2022/11/18 01:33:06;;;;;;;2.72;1.20;;;11.50;99.90;;;;;;5051332;28;20174;-73
2022/11/18 01:35:42;;;;;;;3.03;1.30;;;11.50;99.90;;;;;;5053681;28;20200;-73
2022/11/18 01:38:10;;;;;;;2.08;1.20;;;11.50;99.90;;;;;;5039430;28;20381;-73
2022/11/18 01:40:36;;;;;;;2.35;1.00;;;11.60;99.90;;;;;;5054035;28;20271;-75
2022/11/18 01:43:12;;;;;;;2.95;1.25;;;11.60;99.90;;;;;;5052731;28;20421;-75
2022/11/18 01:45:40;;;;;;;1.73;1.02;;;11.60;99.90;;;;;;5062697;28;20273;-75
2022/11/18 01:48:32;;;;;;;2.30;1.30;;;11.60;99.90;;;;;;5045537;28;20424;-74
2022/11/18 01:51:15;;;;;;;2.88;1.25;;;11.60;99.90;;;;;;5055413;28;20204;-75
2022/11/18 01:53:52;;;;;;;2.78;1.17;;;11.60;99.90;;;;;;5050213;28;20200;-75
2022/11/18 01:56:30;;;;;;;2.63;1.40;;;11.60;99.90;;;;;;5051941;28;20225;-75
2022/11/18 01:59:07;;;;;;;3.10;1.42;;;11.60;99.90;;;;;;5048958;28;20257;-75
2022/11/18 02:01:35;;;;;;;4.40;1.25;;;11.60;99.90;;;;;;5060188;28;20410;-73
2022/11/18 02:04:07;;;;;;;2.90;1.30;;;11.70;99.90;;;;;;5050125;28;20236;-75
2022/11/18 02:06:33;;;;;;;2.45;1.30;;;11.70;99.90;;;;;;5050521;28;20185;-74
2022/11/18 02:08:59;;;;;;;2.33;1.20;;;11.60;99.90;;;;;;5050549;28;20173;-74
2022/11/18 02:14:12;;;;;;;3.25;1.10;;;11.70;99.90;;;;;;5035237;28;20184;-74
2022/11/18 02:17:04;;;;;;;3.40;1.27;;;11.70;99.90;;;;;;5034697;28;20204;-74
2022/11/18 02:19:45;;;;;;;2.75;1.23;;;11.60;99.90;;;;;;5058935;28;20257;-75
2022/11/18 02:22:44;;;;;;;2.63;1.10;;;11.60;99.90;;;;;;5037593;28;20209;-75
2022/11/18 02:25:39;;;;;;;2.47;1.02;;;11.70;99.90;;;;;;5046235;28;20297;-74
2022/11/18 02:28:56;;;;;;;6.13;1.40;;;11.60;99.90;;;;;;5013451;28;20192;-75
2022/11/18 02:31:24;;;;;;;1.33;0.85;;;11.60;99.90;;;;;;5019861;28;20209;-75
2022/11/18 02:34:11;;;;;;;3.13;1.30;;;11.70;99.90;;;;;;5040253;28;20170;-75
2022/11/18 02:37:06;;;;;;;3.65;1.08;;;11.60;99.90;;;;;;5041579;28;20216;-74
2022/11/18 02:39:49;;;;;;;3.53;1.05;;;11.70;99.90;;;;;;5047630;28;20352;-74
2022/11/18 02:42:18;;;;;;;2.03;1.10;;;11.70;99.90;;;;;;5050827;28;20182;-75
2022/11/18 02:44:48;;;;;;;2.67;1.08;;;11.70;99.90;;;;;;5053119;28;20251;-74
2022/11/18 02:47:19;;;;;;;2.50;1.00;;;11.60;99.90;;;;;;5057990;28;20456;-75
2022/11/18 02:49:53;;;;;;;4.40;1.10;;;11.70;99.90;;;;;;5053020;28;20320;-74
2022/11/18 02:52:23;;;;;;;3.47;1.10;;;11.60;99.90;;;;;;5041241;28;20177;-75
2022/11/18 02:54:53;;;;;;;2.33;1.13;;;11.70;99.90;;;;;;5047635;28;20221;-74
2022/11/18 02:57:21;;;;;;;2.08;0.88;;;11.60;99.90;;;;;;5058113;28;20307;-74
2022/11/18 02:59:49;;;;;;;4.07;1.25;;;11.60;99.90;;;;;;5055167;28;20174;-75
2022/11/18 03:02:17;;;;;;;2.45;1.05;;;11.60;99.90;;;;;;5058077;28;20223;-74
2022/11/18 03:04:45;;;;;;;2.45;1.15;;;11.70;99.90;;;;;;5057336;28;20436;-75
2022/11/18 03:07:36;;;;;;;1.48;1.05;;;11.60;99.90;;;;;;5056251;28;20268;-75
2022/11/18 03:10:05;;;;;;;2.20;0.98;;;11.60;99.90;;;;;;5048304;28;20268;-74
2022/11/18 03:12:55;;;;;;;2.33;1.00;;;11.70;99.90;;;;;;5042110;28;20178;-75
2022/11/18 03:16:00;;;;;;;2.92;1.20;;;11.70;99.90;;;;;;5050407;28;20193;-74
2022/11/18 03:18:36;;;;;;;1.60;1.00;;;11.70;99.90;;;;;;5043462;28;20206;-75
2022/11/18 03:21:10;;;;;;;2.38;1.10;;;11.60;99.90;;;;;;5051840;28;20172;-74
2022/11/18 03:23:41;;;;;;;2.38;1.20;;;11.60;99.90;;;;;;5041103;28;20165;-74
2022/11/18 03:26:13;;;;;;;2.95;1.08;;;11.60;99.90;;;;;;5044034;28;20184;-75
2022/11/18 03:28:46;;;;;;;2.58;1.13;;;11.60;99.90;;;;;;5051121;28;20213;-74
2022/11/18 03:31:22;;;;;;;1.63;1.05;;;11.60;99.90;;;;;;5038239;28;20284;-75
2022/11/18 03:33:53;;;;;;;3.85;1.25;;;11.60;99.90;;;;;;5055313;28;20197;-74
2022/11/18 03:36:21;;;;;;;2.40;1.20;;;11.60;99.90;;;;;;5056092;28;20279;-74
2022/11/18 03:38:52;;;;;;;2.75;1.13;;;11.60;99.90;;;;;;5047030;28;20230;-74
2022/11/18 03:41:20;;;;;;;2.08;1.05;;;11.60;99.90;;;;;;5039266;28;20166;-75
2022/11/18 03:43:50;;;;;;;1.73;1.00;;;11.60;99.90;;;;;;5057178;28;20174;-75
2022/11/18 03:46:30;;;;;;;3.05;1.13;;;11.60;99.90;;;;;;5047487;28;20198;-75
2022/11/18 03:48:57;;;;;;;2.13;1.00;;;11.60;99.90;;;;;;5046473;28;20185;-74
2022/11/18 03:51:32;;;;;;;3.38;1.13;;;11.50;99.90;;;;;;5047275;28;20285;-74
2022/11/18 03:54:24;;;;;;;2.92;1.30;;;11.60;99.90;;;;;;5048959;28;20201;-74
2022/11/18 03:57:15;;;;;;;1.30;1.05;;;11.50;99.90;;;;;;5043530;28;20204;-74
2022/11/18 04:00:01;;;;;;;2.45;1.10;;;11.50;99.90;;;;;;5054982;28;20182;-73
2022/11/18 04:02:30;;;;;;;2.13;1.02;;;11.60;99.90;;;;;;5039396;28;20185;-73
2022/11/18 04:04:59;;;;;;;2.72;1.15;;;11.50;99.90;;;;;;5042283;28;20204;-73
2022/11/18 04:07:37;;;;;;;2.28;1.05;;;11.50;99.90;;;;;;5053325;28;20211;-74
2022/11/18 04:10:07;;;;;;;4.75;1.23;;;11.50;99.90;;;;;;5043083;28;20256;-74
2022/11/18 04:12:41;;;;;;;2.35;1.05;;;11.50;99.90;;;;;;5043984;28;20190;-73
2022/11/18 04:15:07;;;;;;;2.53;1.23;;;11.50;99.90;;;;;;5036916;28;20210;-73
2022/11/18 04:17:33;;;;;;;3.75;1.48;;;11.50;99.90;;;;;;5049402;28;20201;-72
2022/11/18 04:19:58;;;;;;;2.60;1.35;;;11.50;99.90;;;;;;5051100;28;20220;-72
2022/11/18 04:22:26;;;;;;;3.72;1.90;;;11.50;99.90;;;;;;5045023;28;20202;-73
2022/11/18 04:24:52;;;;;;;9.82;7.20;;;11.40;99.90;;;;;;5038827;28;20245;-74
2022/11/18 04:27:22;;;;;;;4.30;2.20;;;11.50;99.90;;;;;;5047369;28;20230;-73
2022/11/18 04:29:47;;;;;;;3.08;2.10;;;11.50;99.90;;;;;;5051891;28;20251;-73
2022/11/18 04:32:15;;;;;;;3.67;1.73;;;11.50;99.90;;;;;;5053257;28;20260;-73
2022/11/18 04:34:41;;;;;;;2.83;1.58;;;11.30;99.90;;;;;;5049685;28;20198;-73
2022/11/18 04:37:06;;;;;;;5.63;3.38;;;11.50;99.90;;;;;;5046795;28;20233;-72
2022/11/18 04:39:32;;;;;;;5.75;2.88;;;11.40;99.90;;;;;;5054290;28;20189;-73
2022/11/18 04:41:58;;;;;;;3.72;2.30;;;11.40;99.90;;;;;;5050945;28;20193;-73
2022/11/18 04:44:24;;;;;;;3.70;2.10;;;11.40;99.90;;;;;;5053206;28;20173;-73
2022/11/18 04:46:50;;;;;;;4.03;2.17;;;11.40;99.90;;;;;;5053654;28;20174;-74
2022/11/18 04:49:18;;;;;;;3.50;1.77;;;11.40;99.90;;;;;;5046540;28;20247;-72
2022/11/18 04:51:47;;;;;;;3.33;1.42;;;11.40;99.90;;;;;;5037498;28;20174;-72
2022/11/18 04:54:13;;;;;;;11.07;8.23;;;11.50;99.90;;;;;;5048770;28;20165;-72
2022/11/18 04:56:40;;;;;;;6.07;4.05;;;11.40;99.90;;;;;;5055741;28;20212;-71
2022/11/18 04:59:10;;;;;;;4.38;2.70;;;11.40;99.90;;;;;;5056746;28;20260;-72
2022/11/18 05:01:40;;;;;;;3.03;2.03;;;11.40;99.90;;;;;;5057002;28;20212;-73
2022/11/18 05:04:07;;;;;;;4.72;1.85;;;11.30;99.90;;;;;;5036635;28;20203;-73
2022/11/18 05:06:33;;;;;;;2.75;1.45;;;11.30;99.90;;;;;;5051931;28;20170;-72
2022/11/18 05:09:00;;;;;;;3.25;1.45;;;11.30;99.90;;;;;;5055378;28;20173;-73
2022/11/18 05:14:11;;;;;;;2.45;1.20;;;11.20;99.90;;;;;;5036575;28;20189;-72
2022/11/18 05:16:36;;;;;;;3.88;1.50;;;11.20;99.90;;;;;;5040933;28;20235;-73
2022/11/18 05:19:03;;;;;;;3.05;1.48;;;11.10;99.90;;;;;;5035331;28;20282;-72
2022/11/18 05:21:32;;;;;;;3.22;2.40;;;11.10;99.90;;;;;;5037041;28;20179;-72
2022/11/18 05:23:58;;;;;;;3.00;1.70;;;11.10;99.90;;;;;;5048274;28;20263;-73
2022/11/18 05:26:29;;;;;;;2.83;1.80;;;11.10;99.90;;;;;;5051880;28;20193;-73
2022/11/18 05:28:55;;;;;;;1.98;1.50;;;11.10;99.90;;;;;;5048044;28;20283;-73
2022/11/18 05:31:23;;;;;;;2.15;1.30;;;11.10;99.90;;;;;;5052458;28;20216;-73
2022/11/18 05:33:49;;;;;;;3.40;1.35;;;11.00;99.90;;;;;;5044187;28;20241;-73
2022/11/18 05:36:19;;;;;;;2.30;1.35;;;11.10;99.90;;;;;;5039510;28;20296;-73
2022/11/18 05:38:45;;;;;;;2.70;1.38;;;11.00;99.90;;;;;;5040336;28;20196;-75
2022/11/18 05:43:09;;;;;;;2.30;1.20;;;11.10;99.90;;;;;;5035296;28;20189;-73
2022/11/18 05:44:00;;;;;;;3.40;1.25;;;11.10;99.90;;;;;;5039611;28;20243;-73
2022/11/18 05:46:26;;;;;;;2.90;1.23;;;11.10;99.90;;;;;;5045993;28;20174;-73
2022/11/18 05:48:52;;;;;;;4.03;2.03;;;11.00;99.90;;;;;;5040302;28;20213;-74
2022/11/18 05:51:20;;;;;;;3.08;1.80;;;11.10;99.90;;;;;;5037122;28;20205;-73
2022/11/18 05:53:49;;;;;;;3.70;2.00;;;11.10;99.90;;;;;;5036253;28;20195;-72
2022/11/18 05:56:19;;;;;;;2.53;1.30;;;11.10;99.90;;;;;;5048853;28;20196;-73
2022/11/18 05:58:44;;;;;;;3.33;1.15;;;11.10;99.90;;;;;;5047509;28;20200;-73
2022/11/18 06:01:17;;;;;;;2.50;1.30;;;11.10;99.90;;;;;;5049878;28;20182;-73
2022/11/18 06:03:43;;;;;;;3.22;1.38;;;11.00;99.90;;;;;;5041252;28;20223;-73
2022/11/18 06:06:09;;;;;;;2.83;1.40;;;11.10;99.90;;;;;;5053016;28;20197;-73
2022/11/18 06:08:39;;;;;;;2.88;1.58;;;11.10;99.90;;;;;;5039259;28;20212;-73
2022/11/18 06:11:09;;;;;;;2.05;1.23;;;11.10;99.90;;;;;;5045583;28;20237;-73
2022/11/18 06:13:47;;;;;;;1.88;1.00;;;11.10;99.90;;;;;;5043321;28;20197;-73
2022/11/18 06:16:13;;;;;;;3.25;1.30;;;11.10;99.90;;;;;;5047939;28;20208;-72
2022/11/18 06:18:42;;;;;;;2.65;1.20;;;11.10;99.90;;;;;;5038245;28;20198;-73
2022/11/18 06:21:08;;;;;;;2.97;1.35;;;11.10;99.90;;;;;;5037105;28;20194;-73
2022/11/18 06:23:35;;;;;;;2.10;1.30;;;11.10;99.90;;;;;;5043613;28;20178;-72
2022/11/18 06:26:01;;;;;;;1.83;1.38;;;11.00;99.90;;;;;;5053487;28;20208;-73
2022/11/18 06:28:30;;;;;;;3.15;1.33;;;11.00;99.90;;;;;;5052609;28;20254;-72
2022/11/18 06:30:55;;;;;;;2.50;1.35;;;11.00;99.90;;;;;;5041165;28;20189;-73
2022/11/18 06:33:21;;;;;;;2.22;1.15;;;11.00;99.90;;;;;;5036743;28;20177;-73
2022/11/18 06:35:47;;;;;;;2.85;1.35;;;11.00;99.90;;;;;;5042343;28;20209;-72
2022/11/18 06:38:15;;;;;;;2.27;1.37;;;11.00;99.90;;;;;;5036198;28;20229;-73
2022/11/18 06:40:43;;;;;;;2.67;1.35;;;11.00;99.90;;;;;;5039545;28;20166;-74
2022/11/18 06:48:47;;;;;;;2.10;1.40;;;11.00;99.90;;;;;;5037301;28;20189;-73
2022/11/18 06:51:13;;;;;;;3.07;1.50;;;11.00;99.90;;;;;;5052966;28;20190;-73
2022/11/18 06:53:41;;;;;;;3.42;1.48;;;10.90;99.90;;;;;;5050924;28;20273;-74
2022/11/18 06:56:08;;;;;;;3.03;1.60;;;10.90;99.90;;;;;;5035708;28;20193;-73
2022/11/18 06:58:34;;;;;;;2.00;1.63;;;10.90;99.90;;;;;;5041738;28;20205;-73
2022/11/18 07:01:14;;;;;;;3.03;1.60;;;10.90;99.90;;;;;;5051727;28;20233;-74
2022/11/18 07:03:43;;;;;;;2.08;1.27;;;10.90;99.90;;;;;;5052467;28;20178;-73
2022/11/18 07:06:10;;;;;;;2.17;1.55;;;10.80;99.90;;;;;;5049230;28;20208;-73
2022/11/18 07:08:42;;;;;;;3.33;1.80;;;10.80;99.90;;;;;;5058515;28;20177;-73
2022/11/18 07:11:10;;;;;;;3.72;1.50;;;10.80;99.90;;;;;;5039898;28;20186;-74
2022/11/18 07:13:38;;;;;;;2.97;1.88;;;10.80;99.90;;;;;;5051420;28;20177;-73
2022/11/18 07:16:06;;;;;;;3.03;1.55;;;10.80;99.90;;;;;;5052314;28;20209;-73
2022/11/18 07:18:36;;;;;;;4.10;1.60;;;10.90;99.90;;;;;;5075207;28;20198;-73
2022/11/18 07:21:07;;;;;;;4.57;1.70;;;10.90;99.90;;;;;;5051141;28;20169;-72
2022/11/18 07:23:34;;;;;;;3.45;1.70;;;10.90;99.90;;;;;;5059790;28;20208;-74
2022/11/18 07:26:00;;;;;;;2.88;1.65;;;10.90;99.90;;;;;;5058238;28;20197;-73
2022/11/18 07:28:27;;;;;;;4.72;1.90;;;10.90;99.90;;;;;;5053458;28;20181;-74
2022/11/18 07:30:59;;;;;;;2.70;1.50;;;11.00;99.90;;;;;;5052537;28;20262;-76
2022/11/18 07:33:24;;;;;;;2.60;1.60;;;11.00;99.90;;;;;;5053333;28;20173;-75
2022/11/18 07:35:52;;;;;;;4.78;1.90;;;11.00;99.90;;;;;;5059280;28;20208;-74
2022/11/18 07:38:20;;;;;;;2.63;1.50;;;11.00;99.90;;;;;;5059365;28;20210;-73
2022/11/18 07:40:46;;;;;;;2.75;1.55;;;11.10;99.90;;;;;;5050862;28;21704;-74
2022/11/18 07:43:13;;;;;;;3.50;1.90;;;11.10;99.90;;;;;;5046010;28;20177;-75
2022/11/18 07:45:39;;;;;;;2.85;1.70;;;11.10;99.90;;;;;;5042494;28;20193;-76
2022/11/18 07:48:08;;;;;;;5.50;1.80;;;11.20;99.90;;;;;;5040363;28;20181;-73
2022/11/18 07:50:33;;;;;;;2.50;1.70;;;11.20;99.90;;;;;;5048810;28;20203;-75
2022/11/18 07:52:59;;;;;;;4.45;2.05;;;11.30;99.90;;;;;;5060329;28;20237;-74
2022/11/18 07:55:26;;;;;;;2.83;1.70;;;11.30;99.90;;;;;;5058741;28;20236;-74
2022/11/18 07:57:55;;;;;;;3.50;2.00;;;11.30;99.90;;;;;;5058848;28;20213;-74
2022/11/18 08:00:21;;;;;;;3.25;1.85;;;11.30;99.90;;;;;;5056777;28;20174;-74
2022/11/18 08:02:51;;;;;;;2.78;1.75;;;11.40;99.90;;;;;;5040000;28;20190;-74
2022/11/18 08:05:17;;;;;;;4.10;1.60;;;11.40;99.90;;;;;;5042901;28;20182;-74
2022/11/18 08:07:45;;;;;;;2.83;1.60;;;11.40;99.90;;;;;;5047870;28;20174;-73
2022/11/18 08:10:13;;;;;;;2.47;2.00;;;11.50;99.90;;;;;;5038651;28;20181;-74
2022/11/18 08:12:38;;;;;;;2.70;1.92;;;11.40;99.90;;;;;;5050555;28;20201;-74
2022/11/18 08:15:07;;;;;;;2.25;1.52;;;11.50;99.90;;;;;;5055352;28;20256;-74
2022/11/18 08:17:33;;;;;;;3.13;1.90;;;11.60;99.90;;;;;;5038728;28;20208;-73
2022/11/18 08:19:59;;;;;;;6.85;2.08;;;11.60;99.90;;;;;;5058278;28;20170;-74
2022/11/18 08:22:24;;;;;;;3.03;2.10;;;11.60;99.90;;;;;;5055523;28;20178;-73
2022/11/18 08:24:50;;;;;;;3.00;2.13;;;11.70;99.90;;;;;;5058818;28;20185;-74
2022/11/18 08:27:15;;;;;;;2.92;1.88;;;11.70;99.90;;;;;;5053908;28;20189;-74
2022/11/18 08:29:41;;;;;;;2.70;1.88;;;11.70;99.90;;;;;;5055704;28;20173;-74
2022/11/18 08:32:09;;;;;;;2.10;1.73;;;11.80;99.90;;;;;;5042155;28;20174;-73
2022/11/18 08:34:35;;;;;;;2.95;1.90;;;11.80;99.90;;;;;;5050424;28;20182;-74
2022/11/18 08:37:02;;;;;;;3.25;1.88;;;11.90;99.90;;;;;;5048757;28;20227;-73
2022/11/18 08:39:30;;;;;;;3.25;1.85;;;11.90;99.90;;;;;;5056697;28;20284;-72
2022/11/18 08:41:57;;;;;;;3.38;2.08;;;11.90;99.90;;;;;;5061934;28;20212;-73
2022/11/18 08:44:23;;;;;;;4.10;2.15;;;11.90;99.90;;;;;;5039319;28;20376;-73
2022/11/18 08:46:48;;;;;;;3.50;2.42;;;12.00;99.90;;;;;;5038373;28;20185;-73
2022/11/18 08:49:16;;;;;;;4.30;2.55;;;12.10;99.90;;;;;;5043472;28;20181;-73
2022/11/18 08:51:42;;;;;;;3.85;2.40;;;12.10;99.90;;;;;;5042666;28;20177;-73
2022/11/18 08:54:09;;;;;;;3.40;2.30;;;12.10;99.90;;;;;;5061162;28;20192;-75
2022/11/18 08:56:35;;;;;;;4.00;2.15;;;12.10;99.90;;;;;;5057896;28;20216;-74
2022/11/18 08:59:01;;;;;;;5.93;2.33;;;12.20;99.90;;;;;;5056971;28;20178;-73
2022/11/18 09:01:28;;;;;;;4.07;2.85;;;12.20;99.90;;;;;;5048118;28;20169;-74
2022/11/18 09:03:56;;;;;;;3.25;2.58;;;12.30;99.90;;;;;;5049246;28;20260;-73
2022/11/18 09:06:25;;;;;;;4.30;2.50;;;12.40;99.90;;;;;;5052336;28;20184;-74
2022/11/18 09:08:55;;;;;;;3.38;2.40;;;12.70;99.90;;;;;;5052582;28;20178;-73
2022/11/18 09:11:27;;;;;;;2.65;2.22;;;12.90;99.90;;;;;;5051328;28;20189;-73
2022/11/18 09:13:55;;;;;;;2.90;2.00;;;13.10;99.90;;;;;;5055726;28;20173;-73
2022/11/18 09:16:26;;;;;;;3.67;2.25;;;13.20;99.90;;;;;;5047327;28;20210;-74
2022/11/18 09:18:55;;;;;;;3.35;2.30;;;13.40;99.90;;;;;;5045286;28;20181;-74
2022/11/18 09:21:21;;;;;;;3.05;2.35;;;13.60;99.90;;;;;;5046151;28;20174;-75
2022/11/18 09:23:47;;;;;;;4.07;2.50;;;13.80;99.90;;;;;;5052386;28;20260;-74
2022/11/18 09:26:19;;;;;;;4.32;2.47;;;13.90;99.90;;;;;;5045855;28;20174;-71
2022/11/18 09:28:45;;;;;;;4.13;2.22;;;14.10;99.90;;;;;;5044411;28;20186;-74
2022/11/18 09:31:14;;;;;;;3.20;2.22;;;14.20;99.90;;;;;;5050345;28;20186;-74
2022/11/18 09:33:40;;;;;;;3.42;2.08;;;14.40;99.90;;;;;;5041536;28;20188;-74
2022/11/18 09:36:16;;;;;;;3.28;2.08;;;14.50;99.90;;;;;;5052072;28;20201;-74
2022/11/18 09:38:44;;;;;;;4.05;2.13;;;14.60;99.90;;;;;;5046175;28;20182;-74
2022/11/18 09:41:27;;;;;;;3.35;1.98;;;14.80;99.90;;;;;;5042495;28;20182;-73
2022/11/18 09:44:09;;;;;;;5.32;2.25;;;14.80;99.90;;;;;;5063248;28;20168;-73
2022/11/18 09:46:46;;;;;;;4.35;2.28;;;14.80;99.90;;;;;;5043810;28;20170;-75
2022/11/18 09:49:25;;;;;;;4.20;1.90;;;14.90;99.90;;;;;;5062695;28;20232;-74
2022/11/18 09:51:51;;;;;;;3.88;1.70;;;14.90;99.90;;;;;;5053650;28;20173;-75
2022/11/18 09:54:32;;;;;;;2.90;1.80;;;14.90;99.90;;;;;;5039883;28;20211;-73
2022/11/18 09:56:58;;;;;;;1.85;1.60;;;14.90;99.90;;;;;;5050936;28;20170;-74
2022/11/18 09:59:32;;;;;;;2.40;1.55;;;14.90;99.90;;;;;;5044754;28;20281;-74
2022/11/18 10:02:13;;;;;;;3.28;1.73;;;14.90;99.90;;;;;;5041449;28;20229;-73
2022/11/18 10:04:39;;;;;;;1.83;1.40;;;14.80;99.90;;;;;;5055137;28;20173;-74
2022/11/18 10:07:33;;;;;;;2.90;2.30;;;14.80;99.90;;;;;;5047315;28;20193;-74
2022/11/18 10:10:06;;;;;;;1.90;1.30;;;14.80;99.90;;;;;;5047536;28;20236;-75
2022/11/18 10:12:40;;;;;;;2.47;1.40;;;14.70;99.90;;;;;;5056778;28;20181;-75
2022/11/18 10:15:34;;;;;;;2.78;1.30;;;14.60;99.90;;;;;;5039292;28;20225;-73
2022/11/18 10:18:06;;;;;;;3.67;1.20;;;14.60;99.90;;;;;;5059457;28;20168;-75
2022/11/18 10:20:51;;;;;;;3.35;1.30;;;14.60;99.90;;;;;;5048482;28;20170;-76
2022/11/18 10:23:20;;;;;;;3.38;1.25;;;14.60;99.90;;;;;;5047166;28;20189;-75
2022/11/18 10:25:50;;;;;;;1.30;0.90;;;14.60;99.90;;;;;;5038942;28;20188;-74
2022/11/18 10:28:29;;;;;;;2.17;1.08;;;14.70;99.90;;;;;;5042608;28;20212;-75
2022/11/18 10:31:13;;;;;;;2.25;0.80;;;14.80;99.90;;;;;;5051151;28;20174;-75
2022/11/18 10:33:38;;;;;;;3.45;1.00;;;14.90;99.90;;;;;;5046150;28;20184;-74
2022/11/18 10:36:18;;;;;;;1.83;0.98;;;15.10;99.90;;;;;;5052349;28;20201;-72
2022/11/18 10:38:47;;;;;;;2.70;1.13;;;15.30;99.90;;;;;;5042821;28;20209;-75
2022/11/18 10:41:17;;;;;;;1.73;0.90;;;15.40;99.90;;;;;;5045778;28;20201;-74
2022/11/18 10:43:48;;;;;;;1.40;0.90;;;15.60;99.90;;;;;;5058908;28;20181;-73
2022/11/18 10:46:24;;;;;;;2.60;1.17;;;15.60;99.90;;;;;;5047121;28;20182;-74
2022/11/18 10:49:08;;;;;;;1.48;0.90;;;15.70;99.90;;;;;;5049670;28;20197;-73
2022/11/18 10:51:35;;;;;;;2.42;1.00;;;15.70;99.90;;;;;;5049580;28;20216;-74
2022/11/18 10:54:17;;;;;;;1.42;0.65;;;15.70;99.90;;;;;;5064038;28;20170;-73
2022/11/18 10:57:04;;;;;;;2.20;1.15;;;15.80;99.90;;;;;;5057020;28;20251;-76
2022/11/18 10:59:31;;;;;;;2.95;0.90;;;15.90;99.90;;;;;;5059854;28;20173;-74
2022/11/18 11:02:29;;;;;;;2.28;1.00;;;16.00;99.90;;;;;;5061857;28;20284;-73
2022/11/18 11:05:04;;;;;;;2.50;0.90;;;16.10;99.90;;;;;;5056291;28;20211;-74
2022/11/18 11:07:32;;;;;;;2.10;1.10;;;16.10;99.90;;;;;;5051149;28;20208;-74
2022/11/18 11:10:09;;;;;;;2.03;1.15;;;16.20;99.90;;;;;;5048634;28;20174;-73
2022/11/18 11:12:56;;;;;;;2.10;1.02;;;16.30;99.90;;;;;;5058709;28;20200;-74
2022/11/18 11:15:37;;;;;;;3.42;1.02;;;16.30;99.90;;;;;;5061737;28;20213;-75
2022/11/18 11:21:07;;;;;;;3.72;0.90;;;16.20;99.90;;;;;;5044473;28;20277;-74
2022/11/18 11:23:33;;;;;;;1.83;0.77;;;16.10;99.90;;;;;;5046663;28;20212;-73
2022/11/18 11:26:04;;;;;;;2.08;0.90;;;16.00;99.90;;;;;;5064534;28;20166;-74
2022/11/18 11:28:44;;;;;;;2.20;0.90;;;16.00;99.90;;;;;;5052447;28;20212;-74
2022/11/18 11:31:27;;;;;;;3.33;1.00;;;16.00;99.90;;;;;;5062227;28;20180;-73
2022/11/18 11:34:14;;;;;;;3.25;1.17;;;16.00;99.90;;;;;;5058789;28;20205;-74
2022/11/18 11:37:13;;;;;;;3.55;1.25;;;16.00;99.90;;;;;;5060188;28;20273;-74
2022/11/18 11:39:47;;;;;;;2.13;1.00;;;16.00;99.90;;;;;;5066109;28;20209;-74
2022/11/18 11:42:32;;;;;;;3.17;0.90;;;16.10;99.90;;;;;;5048861;28;20236;-74
2022/11/18 11:45:12;;;;;;;1.90;0.70;;;16.10;99.90;;;;;;5065538;28;20201;-73
2022/11/18 11:47:55;;;;;;;2.33;1.00;;;16.20;99.90;;;;;;5054989;28;20202;-73
2022/11/18 11:50:59;;;;;;;2.13;0.70;;;16.30;99.90;;;;;;5060579;28;20173;-75
2022/11/18 11:53:43;;;;;;;1.67;0.77;;;16.40;99.90;;;;;;5050616;28;20180;-73
2022/11/18 11:56:47;;;;;;;5.05;0.80;;;16.60;99.90;;;;;;5058465;28;20229;-73
2022/11/18 11:59:13;;;;;;;2.25;0.82;;;16.80;99.90;;;;;;5051722;28;20250;-74
2022/11/18 12:01:55;;;;;;;1.67;0.80;;;16.90;99.90;;;;;;5073458;28;20205;-75
2022/11/18 12:04:34;;;;;;;2.63;0.90;;;16.90;99.90;;;;;;5074048;28;20261;-72
2022/11/18 12:07:05;;;;;;;2.25;1.00;;;16.80;99.90;;;;;;5057623;28;20190;-75
2022/11/18 12:09:31;;;;;;;1.77;0.95;;;16.80;99.90;;;;;;5044441;28;20165;-74
2022/11/18 12:12:33;;;;;;;2.45;0.90;;;16.60;99.90;;;;;;5050600;28;20184;-75
2022/11/18 12:15:14;;;;;;;1.88;0.70;;;16.50;99.90;;;;;;5056433;28;20205;-75
2022/11/18 12:18:03;;;;;;;2.85;1.00;;;16.30;99.90;;;;;;5052331;28;20202;-73
2022/11/18 12:20:42;;;;;;;2.97;0.98;;;16.20;99.90;;;;;;5049495;28;20197;-74
2022/11/18 12:23:31;;;;;;;2.33;0.90;;;16.10;99.90;;;;;;5045106;28;20291;-74
2022/11/18 12:26:09;;;;;;;4.22;1.17;;;16.10;99.90;;;;;;5049679;28;20181;-73
2022/11/18 12:28:44;;;;;;;2.00;0.63;;;16.00;99.90;;;;;;5044440;28;20189;-72
2022/11/18 12:31:20;;;;;;;2.83;0.70;;;15.90;99.90;;;;;;5058864;28;20434;-75
2022/11/18 12:33:56;;;;;;;3.75;1.00;;;15.90;99.90;;;;;;5054093;28;20255;-75
2022/11/18 12:36:31;;;;;;;2.55;0.80;;;15.80;99.90;;;;;;5069917;28;20188;-75
2022/11/18 12:38:58;;;;;;;2.45;0.80;;;15.70;99.90;;;;;;5056228;28;20181;-74
2022/11/18 12:44:26;;;;;;;3.15;1.02;;;15.50;99.90;;;;;;5040157;28;20244;-74
2022/11/18 12:46:56;;;;;;;3.13;1.13;;;15.50;99.90;;;;;;5043019;28;20222;-74
2022/11/18 12:49:22;;;;;;;4.70;1.10;;;15.40;99.90;;;;;;5050913;28;20178;-75
2022/11/18 12:51:58;;;;;;;2.42;0.98;;;15.40;99.90;;;;;;5056764;28;20203;-75
2022/11/18 12:54:36;;;;;;;4.18;0.90;;;15.40;99.90;;;;;;5037960;28;20202;-74
2022/11/18 12:57:14;;;;;;;1.50;0.70;;;15.50;99.90;;;;;;5058187;28;20185;-75
2022/11/18 12:59:42;;;;;;;4.78;1.20;;;15.60;99.90;;;;;;5051387;28;20217;-75
2022/11/18 13:02:29;;;;;;;3.35;0.90;;;15.80;99.90;;;;;;5042301;28;20169;-74
2022/11/18 13:05:18;;;;;;;2.47;0.70;;;16.00;99.90;;;;;;5042804;28;20189;-76
2022/11/18 13:08:12;;;;;;;2.25;1.02;;;16.20;99.90;;;;;;5041810;28;20204;-76
2022/11/18 13:10:39;;;;;;;4.57;1.63;;;16.30;99.90;;;;;;5046138;28;20181;-76
2022/11/18 13:13:21;;;;;;;3.55;0.90;;;16.40;99.90;;;;;;5039316;28;20197;-72
2022/11/18 13:18:31;;;;;;;3.33;0.90;;;16.40;99.90;;;;;;5043586;28;20269;-72
2022/11/18 13:23:50;;;;;;;3.72;1.10;;;16.40;99.90;;;;;;5042537;28;20238;-72
2022/11/18 13:23:50;;;;;;;3.38;1.20;;;16.40;99.90;;;;;;5051350;28;20289;-72
2022/11/18 13:26:36;;;;;;;3.03;1.10;;;16.40;99.90;;;;;;5035314;28;20280;-73
2022/11/18 13:29:18;;;;;;;2.50;0.95;;;16.50;99.90;;;;;;5049137;28;20260;-72
2022/11/18 13:31:47;;;;;;;3.35;0.98;;;16.50;99.90;;;;;;5043750;28;20173;-72
2022/11/18 13:34:22;;;;;;;3.28;1.20;;;16.50;99.90;;;;;;5045027;28;20201;-74
2022/11/18 13:36:50;;;;;;;3.63;0.90;;;16.40;99.90;;;;;;5052029;28;20276;-73